Time;durP1;ratioP1;P1;durP2;ratioP2;P2;SDS_P1;SDS_P2;PMS_P1;PMS_P2;Temp;Humidity;BMP_temperature;BMP_pressure;BME280_temperature;BME280_humidity;BME280_pressure;Samples;Min_cycle;Max_cycle;Signal;HPM_P1;HPM_P2
2021/04/02 00:00:31;;;;;;;34.67;18.77;;;13.50;88.70;;;;;;5065004;28;20980;-71
2021/04/02 00:02:57;;;;;;;26.00;18.93;;;13.40;88.70;;;;;;5065581;28;20465;-71
2021/04/02 00:05:24;;;;;;;27.30;18.53;;;13.40;89.40;;;;;;5064857;28;20454;-71
2021/04/02 00:07:50;;;;;;;27.67;18.37;;;13.40;88.90;;;;;;5064883;28;20463;-71
2021/04/02 00:10:19;;;;;;;31.23;20.43;;;13.30;89.20;;;;;;5064831;28;20462;-71
2021/04/02 00:12:46;;;;;;;31.07;21.10;;;13.30;89.60;;;;;;5063873;28;20454;-71
2021/04/02 00:15:15;;;;;;;30.73;20.90;;;13.20;89.70;;;;;;5063306;28;20470;-71
2021/04/02 00:17:43;;;;;;;29.70;21.57;;;13.20;90.00;;;;;;5066499;28;20458;-71
2021/04/02 00:20:12;;;;;;;31.50;20.67;;;13.20;90.10;;;;;;5066542;28;20979;-71
2021/04/02 00:22:38;;;;;;;31.90;21.47;;;13.10;90.00;;;;;;5066872;28;20482;-71
2021/04/02 00:25:05;;;;;;;27.33;19.93;;;13.10;90.10;;;;;;5067444;28;20467;-71
2021/04/02 00:27:31;;;;;;;29.83;21.57;;;13.10;90.20;;;;;;5067200;28;20858;-71
2021/04/02 00:29:57;;;;;;;29.50;22.20;;;12.90;90.30;;;;;;5066581;28;20466;-71
2021/04/02 00:32:25;;;;;;;33.10;21.70;;;12.80;90.60;;;;;;5066858;28;20494;-71
2021/04/02 00:34:53;;;;;;;29.37;22.20;;;12.80;90.70;;;;;;5067347;28;20567;-71
2021/04/02 00:37:19;;;;;;;32.53;21.80;;;12.70;90.80;;;;;;5067447;28;20547;-71
2021/04/02 00:39:46;;;;;;;31.77;23.13;;;12.60;91.00;;;;;;5066974;28;20467;-71
2021/04/02 00:42:12;;;;;;;35.83;23.67;;;12.60;91.10;;;;;;5068303;28;20877;-71
2021/04/02 00:44:38;;;;;;;32.20;22.17;;;12.60;91.30;;;;;;5067457;28;20451;-71
2021/04/02 00:47:05;;;;;;;33.93;23.53;;;12.50;91.40;;;;;;5069876;28;20528;-73
2021/04/02 00:49:31;;;;;;;30.40;21.90;;;12.50;91.40;;;;;;5067117;28;20461;-72
2021/04/02 00:51:58;;;;;;;36.70;23.60;;;12.40;91.60;;;;;;5068373;28;20479;-73
2021/04/02 00:54:24;;;;;;;27.93;21.03;;;12.40;91.60;;;;;;5217232;22;20491;-72
2021/04/02 00:56:51;;;;;;;37.47;22.50;;;12.30;91.70;;;;;;5049582;28;20486;-71
2021/04/02 00:59:17;;;;;;;33.87;22.63;;;12.30;91.80;;;;;;5049809;28;20468;-71
2021/04/02 01:01:43;;;;;;;40.00;24.53;;;12.30;91.80;;;;;;5050031;28;21025;-72
2021/04/02 01:04:09;;;;;;;36.80;25.57;;;12.20;91.80;;;;;;5050436;28;20456;-72
2021/04/02 01:06:36;;;;;;;34.77;23.10;;;12.20;91.90;;;;;;5050004;28;20982;-72
2021/04/02 01:09:03;;;;;;;33.77;22.17;;;12.10;92.10;;;;;;5050015;28;20766;-72
2021/04/02 01:11:29;;;;;;;32.40;22.07;;;12.00;92.20;;;;;;5049786;28;20510;-72
2021/04/02 01:13:58;;;;;;;34.73;24.80;;;11.90;92.30;;;;;;5049874;28;20487;-72
2021/04/02 01:16:26;;;;;;;35.93;24.57;;;11.80;92.80;;;;;;5049837;28;20840;-71
2021/04/02 01:18:57;;;;;;;35.60;23.73;;;11.80;92.70;;;;;;5049220;28;20478;-71
2021/04/02 01:21:27;;;;;;;34.30;23.20;;;11.80;93.00;;;;;;5043999;28;20479;-71
2021/04/02 01:24:29;;;;;;;35.00;23.10;;;11.70;93.10;;;;;;5049827;28;20483;-71
2021/04/02 01:27:11;;;;;;;34.27;24.13;;;11.70;93.20;;;;;;5048867;28;21297;-71
2021/04/02 01:29:44;;;;;;;32.90;24.30;;;11.60;93.30;;;;;;5049114;28;20516;-72
2021/04/02 01:32:12;;;;;;;31.03;22.83;;;11.60;93.40;;;;;;5049820;28;20894;-72
2021/04/02 01:34:43;;;;;;;33.47;21.50;;;11.50;93.60;;;;;;5049054;28;20902;-71
2021/04/02 01:37:12;;;;;;;31.30;21.40;;;11.40;93.60;;;;;;5050015;28;20459;-71
2021/04/02 01:39:41;;;;;;;26.33;20.10;;;11.40;93.60;;;;;;5048936;28;20456;-72
2021/04/02 01:42:12;;;;;;;34.50;20.77;;;11.40;93.60;;;;;;5049715;28;20857;-71
2021/04/02 01:44:40;;;;;;;29.10;20.33;;;11.30;93.70;;;;;;5049563;28;20966;-71
2021/04/02 01:47:09;;;;;;;29.10;20.87;;;11.30;94.00;;;;;;5049580;28;20478;-71
2021/04/02 01:49:37;;;;;;;24.97;19.80;;;11.30;94.00;;;;;;5048625;28;20459;-71
2021/04/02 01:52:05;;;;;;;34.93;21.87;;;11.20;94.00;;;;;;5049343;28;20507;-71
2021/04/02 01:54:32;;;;;;;30.47;21.13;;;11.20;94.10;;;;;;5048915;28;20495;-73
2021/04/02 01:56:59;;;;;;;30.33;20.87;;;11.20;94.30;;;;;;5048974;28;20471;-73
2021/04/02 01:59:27;;;;;;;34.53;20.23;;;11.10;94.30;;;;;;5048886;28;20459;-73
2021/04/02 02:01:57;;;;;;;30.00;19.83;;;11.10;94.40;;;;;;5049505;28;20491;-71
2021/04/02 02:04:25;;;;;;;31.27;19.43;;;11.00;94.40;;;;;;5049081;28;20456;-73
2021/04/02 02:06:53;;;;;;;28.07;19.20;;;10.90;94.60;;;;;;5049198;28;20463;-72
2021/04/02 02:09:28;;;;;;;32.23;20.73;;;10.90;94.70;;;;;;5048673;28;20831;-72
2021/04/02 02:11:58;;;;;;;27.43;19.03;;;10.70;94.90;;;;;;5049027;28;21212;-72
2021/04/02 02:14:28;;;;;;;25.40;17.77;;;10.70;95.20;;;;;;5048835;28;20529;-74
2021/04/02 02:17:05;;;;;;;32.83;19.73;;;10.60;95.40;;;;;;5048967;28;20455;-72
2021/04/02 02:19:36;;;;;;;30.00;20.03;;;10.60;95.60;;;;;;5048746;28;21012;-72
2021/04/02 02:22:04;;;;;;;26.40;18.50;;;10.50;96.00;;;;;;5049668;28;20490;-73
2021/04/02 02:24:31;;;;;;;31.53;17.70;;;10.50;96.50;;;;;;5049143;28;20455;-73
2021/04/02 02:26:57;;;;;;;26.87;16.93;;;10.50;96.50;;;;;;5048911;28;20936;-73
2021/04/02 02:29:24;;;;;;;24.23;17.70;;;10.50;96.30;;;;;;5048837;28;20455;-73
2021/04/02 02:31:51;;;;;;;25.13;17.57;;;10.40;96.40;;;;;;5048387;28;20480;-73
2021/04/02 02:34:19;;;;;;;25.20;15.40;;;10.40;96.40;;;;;;5048943;28;20491;-74
2021/04/02 02:36:45;;;;;;;22.10;15.60;;;10.40;96.50;;;;;;5048517;28;20468;-73
2021/04/02 02:39:14;;;;;;;19.23;14.33;;;10.40;96.60;;;;;;5048432;28;20462;-72
2021/04/02 02:41:43;;;;;;;22.10;14.90;;;10.40;96.70;;;;;;5048789;28;20537;-73
2021/04/02 02:44:09;;;;;;;19.67;14.77;;;10.40;96.60;;;;;;5048633;28;20944;-74
2021/04/02 02:46:35;;;;;;;23.33;14.50;;;10.30;96.70;;;;;;5048743;28;20490;-73
2021/04/02 02:49:07;;;;;;;23.57;14.70;;;10.30;96.70;;;;;;5048424;28;20463;-73
2021/04/02 02:51:36;;;;;;;18.20;13.50;;;10.30;96.90;;;;;;5048701;28;20843;-74
2021/04/02 02:54:06;;;;;;;20.35;14.15;;;10.20;97.00;;;;;;5048678;28;20275;-74
2021/04/02 02:56:35;;;;;;;20.30;13.90;;;10.20;97.00;;;;;;5048576;28;20205;-73
2021/04/02 02:59:03;;;;;;;17.98;12.80;;;10.20;97.00;;;;;;5048372;28;20459;-73
2021/04/02 03:01:33;;;;;;;18.97;12.80;;;10.10;97.00;;;;;;5048360;28;20571;-73
2021/04/02 03:04:01;;;;;;;17.03;12.13;;;10.10;97.20;;;;;;5048641;28;20490;-73
2021/04/02 03:06:28;;;;;;;16.75;12.80;;;10.10;97.20;;;;;;5051885;28;20494;-73
2021/04/02 03:08:57;;;;;;;19.52;13.88;;;10.10;97.10;;;;;;5051234;28;20593;-72
2021/04/02 03:11:24;;;;;;;16.48;11.88;;;10.10;97.00;;;;;;5051030;28;20225;-73
2021/04/02 03:13:51;;;;;;;14.30;12.30;;;10.00;97.10;;;;;;5048405;28;20225;-73
2021/04/02 03:16:19;;;;;;;18.20;12.47;;;10.00;97.20;;;;;;5048954;28;20204;-73
2021/04/02 03:18:48;;;;;;;20.48;12.80;;;10.00;97.30;;;;;;5047671;28;20460;-74
2021/04/02 03:21:15;;;;;;;18.03;11.30;;;9.90;97.90;;;;;;5048503;28;20221;-73
2021/04/02 03:23:43;;;;;;;17.90;11.87;;;9.90;98.10;;;;;;5048212;28;20943;-72
2021/04/02 03:26:11;;;;;;;18.88;11.77;;;9.80;98.10;;;;;;5048314;28;20710;-73
2021/04/02 03:28:39;;;;;;;20.70;13.50;;;9.80;98.10;;;;;;5047781;28;20215;-72
2021/04/02 03:31:06;;;;;;;16.17;12.30;;;9.70;98.40;;;;;;5048081;28;20487;-73
2021/04/02 03:33:35;;;;;;;17.80;12.65;;;9.70;98.70;;;;;;5048106;28;20537;-72
2021/04/02 03:36:06;;;;;;;16.73;11.02;;;9.60;98.70;;;;;;5048867;28;20201;-73
2021/04/02 03:38:36;;;;;;;13.93;9.70;;;9.60;98.70;;;;;;5047686;28;20216;-73
2021/04/02 03:41:08;;;;;;;13.65;11.00;;;9.50;98.60;;;;;;5047934;28;20483;-72
2021/04/02 03:43:37;;;;;;;16.80;11.25;;;9.50;98.50;;;;;;5047908;28;20204;-72
2021/04/02 03:46:04;;;;;;;15.10;10.15;;;9.40;98.40;;;;;;5048461;28;20209;-73
2021/04/02 03:48:34;;;;;;;12.77;10.17;;;9.40;98.30;;;;;;5047693;28;20198;-72
2021/04/02 03:51:02;;;;;;;14.45;9.80;;;9.30;98.10;;;;;;5051967;28;20486;-73
2021/04/02 03:53:31;;;;;;;16.02;10.38;;;9.40;98.10;;;;;;5051697;28;20252;-73
2021/04/02 03:56:02;;;;;;;15.45;11.00;;;9.40;98.20;;;;;;5051869;28;20613;-72
2021/04/02 03:58:29;;;;;;;14.18;10.45;;;9.30;98.30;;;;;;5051415;28;20204;-73
2021/04/02 04:01:00;;;;;;;14.23;9.05;;;9.20;98.10;;;;;;5051325;28;20225;-72
2021/04/02 04:03:27;;;;;;;12.02;7.35;;;9.10;97.40;;;;;;5051787;28;20684;-72
2021/04/02 04:05:58;;;;;;;13.50;8.15;;;9.10;97.20;;;;;;5051780;28;20676;-73
2021/04/02 04:08:26;;;;;;;9.57;7.00;;;9.00;96.70;;;;;;5051521;28;20683;-72
2021/04/02 04:10:54;;;;;;;14.90;8.27;;;9.00;96.60;;;;;;5052381;28;20298;-73
2021/04/02 04:13:24;;;;;;;8.88;6.60;;;8.90;96.50;;;;;;5052760;28;20221;-72
2021/04/02 04:15:53;;;;;;;9.95;6.75;;;8.80;96.20;;;;;;5051963;28;20208;-73
2021/04/02 04:18:22;;;;;;;9.35;6.20;;;8.80;96.00;;;;;;5051451;28;20208;-73
2021/04/02 04:20:50;;;;;;;7.93;6.05;;;8.70;95.60;;;;;;5052476;28;20869;-73
2021/04/02 04:23:17;;;;;;;6.20;5.60;;;8.60;95.40;;;;;;5051780;28;20201;-72
2021/04/02 04:25:45;;;;;;;7.40;5.25;;;8.50;95.40;;;;;;5051526;28;20205;-72
2021/04/02 04:28:15;;;;;;;11.73;6.15;;;8.50;95.30;;;;;;5051664;28;20209;-72
2021/04/02 04:30:42;;;;;;;5.95;4.40;;;8.40;95.10;;;;;;5050711;28;20252;-72
2021/04/02 04:33:09;;;;;;;6.32;4.85;;;8.40;94.50;;;;;;5051201;28;20695;-72
2021/04/02 04:35:37;;;;;;;4.60;4.20;;;8.30;93.90;;;;;;5051076;28;20564;-72
2021/04/02 04:38:05;;;;;;;7.93;4.47;;;8.30;93.90;;;;;;5051361;28;20205;-72
2021/04/02 04:40:33;;;;;;;4.82;3.50;;;8.20;93.80;;;;;;5050512;28;20660;-73
2021/04/02 04:43:01;;;;;;;6.32;3.90;;;8.10;93.60;;;;;;5051134;28;20205;-73
2021/04/02 04:45:28;;;;;;;5.30;3.60;;;8.10;93.50;;;;;;5050987;28;20200;-73
2021/04/02 04:47:55;;;;;;;8.85;3.45;;;8.00;93.20;;;;;;5050985;28;20208;-72
2021/04/02 04:50:21;;;;;;;3.60;3.30;;;8.00;92.70;;;;;;5050961;28;20205;-73
2021/04/02 04:52:53;;;;;;;6.80;3.40;;;8.00;92.80;;;;;;5050290;28;20691;-73
2021/04/02 04:55:22;;;;;;;7.95;3.17;;;7.90;92.60;;;;;;5051048;28;20691;-72
2021/04/02 04:57:50;;;;;;;3.17;2.85;;;7.80;92.30;;;;;;5050608;28;20205;-73
2021/04/02 05:00:19;;;;;;;4.18;2.95;;;7.80;92.40;;;;;;5049802;28;20266;-72
2021/04/02 05:02:46;;;;;;;4.00;3.53;;;7.80;92.40;;;;;;5050982;28;20233;-73
2021/04/02 05:05:19;;;;;;;3.85;2.75;;;7.70;92.40;;;;;;5050564;28;20208;-73
2021/04/02 05:07:48;;;;;;;4.80;3.30;;;7.70;92.40;;;;;;5050804;28;20205;-72
2021/04/02 05:10:18;;;;;;;4.80;2.85;;;7.60;92.50;;;;;;5050097;28;20622;-72
2021/04/02 05:12:45;;;;;;;5.63;3.00;;;7.50;92.30;;;;;;5050349;28;20224;-72
2021/04/02 05:15:13;;;;;;;3.00;2.70;;;7.50;92.60;;;;;;5050816;28;20225;-72
2021/04/02 05:17:41;;;;;;;3.10;2.80;;;7.40;92.50;;;;;;5050197;28;20299;-71
2021/04/02 05:20:09;;;;;;;4.55;3.00;;;7.40;92.50;;;;;;5049891;28;20830;-71
2021/04/02 05:22:36;;;;;;;3.13;2.83;;;7.40;92.60;;;;;;5050078;28;20225;-72
2021/04/02 05:25:03;;;;;;;4.85;3.03;;;7.40;92.50;;;;;;5050341;28;20193;-72
2021/04/02 05:27:30;;;;;;;2.95;2.65;;;7.40;92.50;;;;;;5050142;28;20247;-72
2021/04/02 05:29:57;;;;;;;3.85;2.88;;;7.40;92.70;;;;;;5049341;28;20706;-73
2021/04/02 05:32:23;;;;;;;4.75;2.70;;;7.40;92.60;;;;;;5049972;28;20716;-71
2021/04/02 05:34:49;;;;;;;4.97;2.70;;;7.40;92.40;;;;;;5049543;28;20225;-72
2021/04/02 05:37:16;;;;;;;4.97;3.05;;;7.30;92.40;;;;;;5050078;28;20209;-72
2021/04/02 05:39:42;;;;;;;5.18;2.60;;;7.30;92.30;;;;;;5049230;28;20258;-71
2021/04/02 05:42:12;;;;;;;4.70;2.60;;;7.30;92.30;;;;;;5037815;28;20221;-71
2021/04/02 05:44:39;;;;;;;3.83;2.80;;;7.30;92.30;;;;;;5029802;28;20312;-71
2021/04/02 05:47:07;;;;;;;6.05;2.55;;;7.30;92.40;;;;;;5029899;28;20201;-72
2021/04/02 05:49:34;;;;;;;5.30;2.80;;;7.30;92.70;;;;;;5029171;28;20739;-72
2021/04/02 05:52:01;;;;;;;4.88;2.60;;;7.40;93.20;;;;;;5029832;28;20225;-73
2021/04/02 05:54:30;;;;;;;3.15;2.50;;;7.40;92.90;;;;;;5029899;28;20221;-72
2021/04/02 05:56:57;;;;;;;3.88;3.00;;;7.50;92.80;;;;;;5029300;28;20213;-72
2021/04/02 05:59:23;;;;;;;4.35;3.15;;;7.50;92.50;;;;;;5029273;28;20209;-72
2021/04/02 06:01:51;;;;;;;3.88;2.88;;;7.60;92.30;;;;;;5029240;28;20230;-72
2021/04/02 06:04:18;;;;;;;4.53;2.63;;;7.70;92.30;;;;;;5029374;28;20205;-72
2021/04/02 06:06:45;;;;;;;6.40;3.58;;;7.80;92.10;;;;;;5029334;28;20739;-72
2021/04/02 06:09:12;;;;;;;3.65;3.10;;;7.80;92.10;;;;;;5028721;28;20684;-72
2021/04/02 06:11:38;;;;;;;4.75;3.38;;;7.90;92.20;;;;;;5028705;28;20226;-72
2021/04/02 06:14:05;;;;;;;6.07;2.90;;;7.90;92.20;;;;;;5029313;28;20592;-72
2021/04/02 06:16:32;;;;;;;5.30;3.00;;;7.90;92.10;;;;;;5029547;28;20201;-72
2021/04/02 06:19:05;;;;;;;4.63;3.25;;;7.90;92.00;;;;;;5028697;28;20576;-72
2021/04/02 06:21:31;;;;;;;4.75;3.30;;;7.90;92.40;;;;;;5029414;28;20229;-72
2021/04/02 06:23:58;;;;;;;7.05;3.75;;;8.00;92.30;;;;;;5029507;28;20201;-71
2021/04/02 06:26:24;;;;;;;3.88;3.30;;;8.00;92.40;;;;;;5029178;28;20854;-71
2021/04/02 06:28:52;;;;;;;5.05;3.33;;;8.00;92.10;;;;;;5028770;28;20431;-71
2021/04/02 06:31:19;;;;;;;6.95;3.70;;;8.10;92.10;;;;;;5029005;28;20222;-72
2021/04/02 06:33:47;;;;;;;5.90;3.50;;;8.10;92.10;;;;;;5028620;28;20232;-72
2021/04/02 06:36:15;;;;;;;4.70;4.18;;;8.20;92.10;;;;;;5028934;28;20255;-72
2021/04/02 06:38:44;;;;;;;4.93;4.03;;;8.30;92.10;;;;;;5028621;28;20201;-71
2021/04/02 06:41:11;;;;;;;4.60;4.13;;;8.40;92.10;;;;;;5031634;28;20213;-71
2021/04/02 06:43:41;;;;;;;5.30;3.75;;;8.40;91.90;;;;;;5048101;28;20580;-72
2021/04/02 06:46:09;;;;;;;5.45;4.22;;;8.50;91.80;;;;;;5048970;28;20209;-72
2021/04/02 06:48:35;;;;;;;5.30;3.78;;;8.60;91.80;;;;;;5047925;28;20676;-71
2021/04/02 06:51:01;;;;;;;9.23;4.20;;;8.70;91.70;;;;;;5048557;28;20224;-72
2021/04/02 06:53:31;;;;;;;5.82;4.03;;;8.80;91.50;;;;;;5048379;28;20212;-72
2021/04/02 06:55:59;;;;;;;4.25;3.65;;;8.80;91.70;;;;;;5098112;22;20915;-73
2021/04/02 06:58:28;;;;;;;6.00;4.15;;;8.90;91.60;;;;;;5028304;28;20213;-73
2021/04/02 07:00:59;;;;;;;6.63;4.03;;;9.10;91.70;;;;;;5028198;28;20684;-73
2021/04/02 07:03:26;;;;;;;4.65;4.25;;;9.30;91.30;;;;;;5028754;28;20293;-73
2021/04/02 07:05:52;;;;;;;5.80;4.20;;;9.40;90.90;;;;;;5028287;28;20209;-73
2021/04/02 07:08:21;;;;;;;7.40;3.92;;;9.70;90.80;;;;;;5028271;28;20209;-73
2021/04/02 07:10:50;;;;;;;6.10;4.40;;;10.00;89.90;;;;;;5027979;28;20226;-74
2021/04/02 07:13:17;;;;;;;5.28;4.00;;;10.20;90.30;;;;;;5028581;28;20206;-73
2021/04/02 07:15:44;;;;;;;6.13;4.00;;;10.20;89.50;;;;;;5028432;28;20672;-73
2021/04/02 07:18:12;;;;;;;3.95;3.60;;;10.20;90.00;;;;;;5028528;28;20205;-73
2021/04/02 07:20:38;;;;;;;4.47;3.95;;;10.20;89.90;;;;;;5039472;28;20246;-73
2021/04/02 07:23:05;;;;;;;4.53;3.67;;;10.30;88.60;;;;;;5049350;28;20668;-73
2021/04/02 07:25:32;;;;;;;7.07;4.70;;;10.20;89.20;;;;;;5052831;28;20631;-73
2021/04/02 07:28:00;;;;;;;5.23;4.33;;;10.30;89.20;;;;;;5053601;28;20216;-72
2021/04/02 07:30:28;;;;;;;5.10;4.60;;;10.20;88.50;;;;;;5052868;28;20482;-73
2021/04/02 07:33:00;;;;;;;5.40;4.90;;;10.30;89.10;;;;;;5052069;28;20466;-73
2021/04/02 07:35:26;;;;;;;5.80;4.40;;;10.40;89.30;;;;;;5052995;28;20490;-73
2021/04/02 07:37:54;;;;;;;8.83;4.80;;;10.60;89.40;;;;;;5052066;28;20478;-73
2021/04/02 07:40:23;;;;;;;6.00;4.90;;;11.00;88.20;;;;;;5051220;28;20455;-73
2021/04/02 07:42:52;;;;;;;4.97;4.47;;;11.30;86.90;;;;;;5043767;28;20486;-73
2021/04/02 07:45:22;;;;;;;5.03;4.53;;;11.70;86.50;;;;;;5029403;28;20471;-73
2021/04/02 07:47:54;;;;;;;5.57;4.50;;;12.20;84.80;;;;;;5028618;28;20963;-72
2021/04/02 07:50:34;;;;;;;10.67;4.60;;;12.60;83.60;;;;;;5027432;28;20470;-73
2021/04/02 07:53:01;;;;;;;5.63;5.13;;;12.80;82.50;;;;;;5028396;28;20498;-73
2021/04/02 07:55:28;;;;;;;5.50;4.90;;;13.20;81.70;;;;;;5028619;28;20498;-73
2021/04/02 07:57:56;;;;;;;5.70;4.80;;;13.40;81.30;;;;;;5028304;28;20464;-73
2021/04/02 08:00:26;;;;;;;5.37;4.80;;;13.70;80.60;;;;;;5028183;28;20491;-74
2021/04/02 08:03:10;;;;;;;8.23;5.30;;;14.00;79.30;;;;;;5027936;28;21089;-73
2021/04/02 08:05:38;;;;;;;5.50;4.67;;;14.20;78.30;;;;;;5028056;28;20456;-74
2021/04/02 08:08:13;;;;;;;5.50;4.73;;;14.70;77.30;;;;;;5027957;28;20529;-73
2021/04/02 08:10:39;;;;;;;5.70;5.00;;;15.30;77.00;;;;;;5028109;28;20554;-73
2021/04/02 08:13:19;;;;;;;10.80;4.70;;;15.80;76.00;;;;;;5027917;28;20526;-74
2021/04/02 08:15:46;;;;;;;6.20;5.23;;;15.90;75.90;;;;;;5027972;28;20471;-73
2021/04/02 08:18:20;;;;;;;4.90;4.40;;;16.10;74.80;;;;;;5028602;28;20809;-75
2021/04/02 08:20:54;;;;;;;7.13;4.90;;;16.20;73.40;;;;;;5028118;28;20499;-77
2021/04/02 08:23:22;;;;;;;6.57;4.73;;;15.90;75.00;;;;;;5029220;28;20478;-76
2021/04/02 08:25:54;;;;;;;6.57;5.37;;;16.30;75.30;;;;;;5029021;28;20680;-76
2021/04/02 08:28:24;;;;;;;5.97;5.20;;;16.80;73.00;;;;;;5028224;28;20460;-74
2021/04/02 08:30:53;;;;;;;11.47;5.27;;;17.10;72.90;;;;;;5027751;28;20480;-76
2021/04/02 08:33:20;;;;;;;6.57;5.90;;;17.70;71.30;;;;;;5027862;28;20460;-76
2021/04/02 08:35:47;;;;;;;6.20;5.60;;;17.70;70.20;;;;;;5027073;28;20464;-76
2021/04/02 08:38:13;;;;;;;7.10;5.30;;;18.30;69.90;;;;;;5027368;28;20558;-76
2021/04/02 08:40:40;;;;;;;6.27;5.70;;;18.80;67.80;;;;;;5027212;28;20500;-75
2021/04/02 08:43:08;;;;;;;8.30;6.00;;;19.30;67.80;;;;;;5027833;28;20518;-76
2021/04/02 08:45:36;;;;;;;6.67;5.57;;;19.60;67.70;;;;;;5028062;28;20464;-77
2021/04/02 08:48:05;;;;;;;6.13;5.53;;;19.80;66.70;;;;;;5031200;28;20459;-77
2021/04/02 08:50:31;;;;;;;6.47;5.87;;;19.70;66.10;;;;;;5046534;28;20961;-77
2021/04/02 08:53:06;;;;;;;6.30;5.70;;;20.20;65.10;;;;;;5030165;28;20455;-77
2021/04/02 08:55:33;;;;;;;6.57;5.97;;;20.40;65.50;;;;;;5027675;28;20487;-77
2021/04/02 08:58:00;;;;;;;8.40;5.80;;;20.30;64.90;;;;;;5028241;28;20464;-76
2021/04/02 09:00:26;;;;;;;7.07;6.43;;;20.70;64.30;;;;;;5027309;28;20822;-76
2021/04/02 09:02:55;;;;;;;7.10;6.40;;;20.80;63.10;;;;;;5027548;28;20532;-76
2021/04/02 09:05:22;;;;;;;7.83;6.20;;;20.80;62.60;;;;;;5028400;28;20842;-80
2021/04/02 09:07:48;;;;;;;6.70;6.00;;;21.10;62.80;;;;;;5029488;28;20468;-77
2021/04/02 09:10:17;;;;;;;8.00;7.20;;;21.20;62.20;;;;;;5029939;28;20530;-77
2021/04/02 09:12:45;;;;;;;7.23;6.13;;;21.50;60.90;;;;;;5027274;28;20512;-79
2021/04/02 09:15:18;;;;;;;6.23;5.70;;;21.50;62.70;;;;;;5028003;28;20488;-76
2021/04/02 09:17:45;;;;;;;7.23;6.53;;;22.00;62.10;;;;;;5027728;28;20514;-76
2021/04/02 09:20:14;;;;;;;6.67;5.97;;;21.90;61.60;;;;;;5028169;28;21223;-76
2021/04/02 09:22:43;;;;;;;6.93;6.23;;;21.20;62.10;;;;;;5027892;28;21057;-77
2021/04/02 09:25:13;;;;;;;8.50;6.90;;;21.50;62.80;;;;;;5027667;28;21010;-76
2021/04/02 09:27:40;;;;;;;7.10;6.40;;;21.90;61.00;;;;;;5027172;28;21002;-76
2021/04/02 09:30:07;;;;;;;8.07;6.33;;;20.50;61.60;;;;;;5027587;28;20844;-77
2021/04/02 09:32:35;;;;;;;9.33;6.50;;;19.70;63.60;;;;;;5028439;28;20476;-77
2021/04/02 09:35:04;;;;;;;7.30;6.50;;;19.30;64.90;;;;;;5028832;28;20854;-77
2021/04/02 09:37:31;;;;;;;10.53;7.70;;;19.00;65.80;;;;;;5027614;28;20468;-77
2021/04/02 09:39:59;;;;;;;8.70;6.70;;;18.50;67.30;;;;;;5026588;28;20460;-76
2021/04/02 09:42:28;;;;;;;9.10;7.43;;;17.60;67.70;;;;;;5027115;28;21022;-77
2021/04/02 09:44:54;;;;;;;7.70;7.10;;;17.10;70.50;;;;;;5026997;28;20952;-75
2021/04/02 09:47:23;;;;;;;7.30;6.60;;;16.90;70.10;;;;;;5026398;28;20461;-75
2021/04/02 09:49:51;;;;;;;9.20;7.63;;;17.00;70.70;;;;;;5026283;28;20464;-75
2021/04/02 09:52:18;;;;;;;7.80;6.90;;;17.20;69.70;;;;;;5025420;28;20511;-75
2021/04/02 09:54:44;;;;;;;7.97;6.23;;;17.30;69.70;;;;;;5026820;28;20568;-75
2021/04/02 09:57:12;;;;;;;8.87;7.97;;;17.70;69.10;;;;;;5026665;28;20464;-75
2021/04/02 09:59:38;;;;;;;8.57;7.40;;;17.20;69.60;;;;;;5026086;28;20490;-75
2021/04/02 10:02:05;;;;;;;8.97;8.07;;;16.90;71.40;;;;;;5026883;28;20632;-75
2021/04/02 10:04:31;;;;;;;9.03;7.47;;;16.70;69.90;;;;;;5026334;28;20464;-75
2021/04/02 10:06:58;;;;;;;8.90;8.00;;;16.40;70.70;;;;;;5026763;28;21237;-75
2021/04/02 10:09:25;;;;;;;8.30;7.50;;;16.40;71.80;;;;;;5026160;28;20963;-75
2021/04/02 10:11:51;;;;;;;9.50;7.63;;;16.10;72.50;;;;;;5026107;28;20484;-75
2021/04/02 10:14:19;;;;;;;7.80;7.10;;;16.00;71.10;;;;;;5025720;28;20484;-75
2021/04/02 10:16:46;;;;;;;8.77;7.87;;;16.30;71.80;;;;;;5026514;28;20456;-75
2021/04/02 10:19:13;;;;;;;9.10;7.37;;;16.30;72.40;;;;;;5025324;28;20468;-75
2021/04/02 10:21:39;;;;;;;10.30;7.40;;;16.10;71.70;;;;;;5025169;28;20999;-75
2021/04/02 10:24:07;;;;;;;9.83;7.87;;;15.90;72.40;;;;;;5026912;28;20551;-74
2021/04/02 10:26:34;;;;;;;8.23;7.37;;;15.90;72.60;;;;;;5025359;28;20469;-74
2021/04/02 10:29:01;;;;;;;8.23;7.43;;;16.60;71.70;;;;;;5024958;28;20464;-75
2021/04/02 10:31:29;;;;;;;7.73;6.93;;;17.30;68.60;;;;;;5025545;28;20522;-74
2021/04/02 10:33:55;;;;;;;8.50;7.10;;;18.60;68.30;;;;;;5024871;28;21007;-75
2021/04/02 10:36:22;;;;;;;10.60;7.50;;;20.60;64.10;;;;;;5025894;28;20456;-75
2021/04/02 10:38:49;;;;;;;7.10;6.43;;;22.30;61.30;;;;;;5024685;28;20518;-75
2021/04/02 10:41:16;;;;;;;9.40;6.40;;;23.10;60.20;;;;;;5025333;28;20483;-75
2021/04/02 10:43:43;;;;;;;8.70;6.33;;;24.10;59.30;;;;;;5025013;28;20468;-75
2021/04/02 10:46:09;;;;;;;7.30;6.60;;;24.00;58.10;;;;;;5025424;28;20460;-75
2021/04/02 10:48:36;;;;;;;8.40;7.27;;;24.20;57.40;;;;;;5024391;28;20975;-76
2021/04/02 10:51:04;;;;;;;6.60;6.00;;;24.40;57.80;;;;;;5024730;28;20846;-76
2021/04/02 10:53:30;;;;;;;7.33;6.63;;;25.30;56.80;;;;;;5025306;28;20453;-75
2021/04/02 10:56:00;;;;;;;7.33;6.63;;;26.50;53.60;;;;;;5024584;28;20507;-75
2021/04/02 10:58:27;;;;;;;6.70;6.10;;;26.90;54.70;;;;;;5026928;28;20460;-75
2021/04/02 11:00:54;;;;;;;7.87;7.07;;;27.40;53.80;;;;;;5029619;28;20501;-75
2021/04/02 11:03:20;;;;;;;6.83;6.23;;;26.40;53.10;;;;;;5028706;28;20728;-75
2021/04/02 11:05:48;;;;;;;8.10;7.33;;;25.10;55.20;;;;;;5028762;28;20452;-73
2021/04/02 11:08:15;;;;;;;7.63;6.90;;;25.00;54.40;;;;;;5028812;28;20949;-75
2021/04/02 11:10:41;;;;;;;8.33;7.53;;;25.50;55.40;;;;;;5028353;28;20456;-75
2021/04/02 11:13:08;;;;;;;7.20;6.60;;;26.10;53.00;;;;;;5028895;28;20474;-74
2021/04/02 11:15:34;;;;;;;7.20;6.60;;;25.80;53.00;;;;;;5028371;28;21253;-75
2021/04/02 11:18:00;;;;;;;7.87;7.10;;;26.50;52.50;;;;;;5028938;28;20464;-75
2021/04/02 11:20:29;;;;;;;6.50;5.90;;;26.60;53.10;;;;;;5028728;28;20471;-74
2021/04/02 11:22:57;;;;;;;7.20;6.50;;;26.50;53.20;;;;;;5029094;28;20901;-75
2021/04/02 11:25:24;;;;;;;7.57;6.80;;;26.70;52.70;;;;;;5029572;28;20460;-77
2021/04/02 11:27:53;;;;;;;6.90;6.30;;;27.00;52.00;;;;;;5028284;28;20535;-74
2021/04/02 11:30:22;;;;;;;7.50;6.03;;;26.70;51.20;;;;;;5028436;28;20483;-74
2021/04/02 11:32:49;;;;;;;7.37;6.27;;;26.20;51.80;;;;;;5027976;28;20460;-73
2021/04/02 11:35:16;;;;;;;7.20;6.60;;;25.90;51.00;;;;;;5028526;28;20488;-75
2021/04/02 11:37:43;;;;;;;7.17;6.47;;;26.10;51.50;;;;;;5029469;28;20463;-75
2021/04/02 11:40:14;;;;;;;5.97;5.33;;;25.80;50.90;;;;;;5041082;28;20557;-74
2021/04/02 11:42:41;;;;;;;6.93;6.40;;;26.30;51.20;;;;;;5016690;28;20473;-76
2021/04/02 11:45:09;;;;;;;7.70;5.60;;;26.30;51.50;;;;;;5009094;28;20522;-75
2021/04/02 11:47:36;;;;;;;6.80;6.17;;;26.90;51.20;;;;;;5007749;28;20485;-76
2021/04/02 11:50:03;;;;;;;9.97;5.93;;;27.00;51.80;;;;;;5013577;28;20544;-76
2021/04/02 11:52:29;;;;;;;6.13;5.63;;;27.30;50.40;;;;;;5027873;28;20487;-76
2021/04/02 11:54:55;;;;;;;6.40;5.80;;;27.20;50.80;;;;;;5027768;28;20491;-75
2021/04/02 11:57:23;;;;;;;6.23;5.77;;;26.90;50.00;;;;;;5028661;28;20482;-75
2021/04/02 11:59:49;;;;;;;7.13;5.80;;;26.00;50.70;;;;;;5027045;28;20821;-73
2021/04/02 12:02:15;;;;;;;7.83;5.60;;;25.60;51.20;;;;;;5028135;28;20526;-76
2021/04/02 12:04:42;;;;;;;5.43;5.00;;;26.00;50.90;;;;;;5027618;28;20456;-76
2021/04/02 12:07:08;;;;;;;5.80;5.33;;;25.90;50.80;;;;;;5028130;28;20464;-74
2021/04/02 12:09:34;;;;;;;6.13;5.60;;;26.60;51.50;;;;;;5026712;28;20546;-75
2021/04/02 12:12:00;;;;;;;5.70;5.27;;;26.70;49.70;;;;;;5043198;28;21013;-75
2021/04/02 12:14:28;;;;;;;5.13;4.73;;;26.40;51.00;;;;;;5047745;28;20472;-75
2021/04/02 12:16:54;;;;;;;5.83;5.30;;;26.00;53.30;;;;;;5046920;28;20550;-73
2021/04/02 12:19:20;;;;;;;6.00;5.40;;;25.80;51.70;;;;;;5040623;28;20526;-74
2021/04/02 12:21:48;;;;;;;5.20;4.80;;;26.00;50.30;;;;;;5026979;28;20514;-73
2021/04/02 12:24:14;;;;;;;5.20;4.80;;;26.20;49.80;;;;;;5028527;28;20456;-73
2021/04/02 12:26:40;;;;;;;5.37;4.93;;;26.60;51.10;;;;;;5028877;28;20877;-74
2021/04/02 12:29:07;;;;;;;5.17;4.67;;;25.90;51.30;;;;;;5028553;28;20686;-75
2021/04/02 12:31:34;;;;;;;5.13;4.63;;;26.40;51.30;;;;;;5027844;28;20991;-74
2021/04/02 12:34:01;;;;;;;4.50;4.20;;;26.10;50.30;;;;;;5028339;28;20952;-73
2021/04/02 12:36:28;;;;;;;5.50;5.00;;;26.70;49.20;;;;;;5028402;28;20494;-74
2021/04/02 12:38:55;;;;;;;5.80;5.30;;;26.30;48.80;;;;;;5027645;28;20977;-76
2021/04/02 12:41:21;;;;;;;6.07;5.47;;;26.10;49.10;;;;;;5028535;28;20516;-73
2021/04/02 12:43:48;;;;;;;6.53;4.67;;;25.80;50.80;;;;;;5027589;28;20889;-75
2021/04/02 12:46:14;;;;;;;5.63;5.13;;;25.80;50.90;;;;;;5028638;28;20507;-74